sensor_id;sensor_type;location;lat;lon;timestamp;temperature;humidity
66328;DHT22;53133;52.862;6.602;2023-05-09T00:00:20;16.50;99.90
66328;DHT22;53133;52.862;6.602;2023-05-09T00:02:45;16.50;99.90
66328;DHT22;53133;52.862;6.602;2023-05-09T00:05:12;16.50;99.90
66328;DHT22;53133;52.862;6.602;2023-05-09T00:07:39;16.50;99.90
66328;DHT22;53133;52.862;6.602;2023-05-09T00:10:05;16.40;99.90
66328;DHT22;53133;52.862;6.602;2023-05-09T00:12:31;16.40;99.90
66328;DHT22;53133;52.862;6.602;2023-05-09T00:14:56;16.30;99.90
66328;DHT22;53133;52.862;6.602;2023-05-09T00:17:25;16.40;99.90
66328;DHT22;53133;52.862;6.602;2023-05-09T00:19:51;16.40;99.90
66328;DHT22;53133;52.862;6.602;2023-05-09T00:22:20;16.30;99.90
66328;DHT22;53133;52.862;6.602;2023-05-09T00:24:49;16.30;99.90
66328;DHT22;53133;52.862;6.602;2023-05-09T00:27:15;16.40;99.90
66328;DHT22;53133;52.862;6.602;2023-05-09T00:29:42;16.30;99.90
66328;DHT22;53133;52.862;6.602;2023-05-09T00:32:07;16.40;99.90
66328;DHT22;53133;52.862;6.602;2023-05-09T00:34:33;16.30;99.90
66328;DHT22;53133;52.862;6.602;2023-05-09T00:36:59;16.30;99.90
66328;DHT22;53133;52.862;6.602;2023-05-09T00:39:25;16.30;99.90
66328;DHT22;53133;52.862;6.602;2023-05-09T00:41:51;16.40;99.90
66328;DHT22;53133;52.862;6.602;2023-05-09T00:44:17;16.20;99.90
66328;DHT22;53133;52.862;6.602;2023-05-09T00:46:43;16.20;99.90
66328;DHT22;53133;52.862;6.602;2023-05-09T00:49:09;16.30;99.90
66328;DHT22;53133;52.862;6.602;2023-05-09T00:51:35;16.20;99.90
66328;DHT22;53133;52.862;6.602;2023-05-09T00:54:01;16.30;99.90
66328;DHT22;53133;52.862;6.602;2023-05-09T00:56:27;16.30;99.90
66328;DHT22;53133;52.862;6.602;2023-05-09T00:58:53;16.20;99.90
66328;DHT22;53133;52.862;6.602;2023-05-09T01:01:20;16.20;99.90
66328;DHT22;53133;52.862;6.602;2023-05-09T01:03:49;16.20;99.90
66328;DHT22;53133;52.862;6.602;2023-05-09T01:06:21;16.20;99.90
66328;DHT22;53133;52.862;6.602;2023-05-09T01:09:09;16.10;99.90
66328;DHT22;53133;52.862;6.602;2023-05-09T01:11:44;16.10;99.90
66328;DHT22;53133;52.862;6.602;2023-05-09T01:17:02;16.10;99.90
66328;DHT22;53133;52.862;6.602;2023-05-09T01:22:07;16.10;99.90
66328;DHT22;53133;52.862;6.602;2023-05-09T01:30:11;16.10;99.90
66328;DHT22;53133;52.862;6.602;2023-05-09T01:32:38;16.10;99.90
66328;DHT22;53133;52.862;6.602;2023-05-09T01:35:08;16.10;99.90
66328;DHT22;53133;52.862;6.602;2023-05-09T01:37:36;16.10;99.90
66328;DHT22;53133;52.862;6.602;2023-05-09T01:40:11;16.10;99.90
66328;DHT22;53133;52.862;6.602;2023-05-09T01:42:41;16.10;99.90
66328;DHT22;53133;52.862;6.602;2023-05-09T01:45:09;16.10;99.90
66328;DHT22;53133;52.862;6.602;2023-05-09T01:47:36;16.10;99.90
66328;DHT22;53133;52.862;6.602;2023-05-09T01:50:04;16.10;99.90
66328;DHT22;53133;52.862;6.602;2023-05-09T01:52:31;16.10;99.90
66328;DHT22;53133;52.862;6.602;2023-05-09T01:54:59;16.10;99.90
66328;DHT22;53133;52.862;6.602;2023-05-09T01:57:27;16.10;99.90
66328;DHT22;53133;52.862;6.602;2023-05-09T01:59:54;16.10;99.90
66328;DHT22;53133;52.862;6.602;2023-05-09T02:02:20;16.10;99.90
66328;DHT22;53133;52.862;6.602;2023-05-09T02:04:47;16.10;99.90
66328;DHT22;53133;52.862;6.602;2023-05-09T02:07:13;16.10;99.90
66328;DHT22;53133;52.862;6.602;2023-05-09T02:09:39;16.10;99.90
66328;DHT22;53133;52.862;6.602;2023-05-09T02:12:05;16.10;99.90
66328;DHT22;53133;52.862;6.602;2023-05-09T02:14:31;16.00;99.90
66328;DHT22;53133;52.862;6.602;2023-05-09T02:16:59;16.00;99.90
66328;DHT22;53133;52.862;6.602;2023-05-09T02:19:24;16.00;99.90
66328;DHT22;53133;52.862;6.602;2023-05-09T02:21:50;16.10;99.90
66328;DHT22;53133;52.862;6.602;2023-05-09T02:24:16;16.00;99.90
66328;DHT22;53133;52.862;6.602;2023-05-09T02:26:42;16.10;99.90
66328;DHT22;53133;52.862;6.602;2023-05-09T02:29:07;16.10;99.90
66328;DHT22;53133;52.862;6.602;2023-05-09T02:31:35;16.10;99.90
66328;DHT22;53133;52.862;6.602;2023-05-09T02:34:02;16.10;99.90
66328;DHT22;53133;52.862;6.602;2023-05-09T02:36:29;16.10;99.90
66328;DHT22;53133;52.862;6.602;2023-05-09T02:38:56;16.10;99.90
66328;DHT22;53133;52.862;6.602;2023-05-09T02:41:25;16.10;99.90
66328;DHT22;53133;52.862;6.602;2023-05-09T02:43:52;16.10;99.90
66328;DHT22;53133;52.862;6.602;2023-05-09T02:46:18;16.00;99.90
66328;DHT22;53133;52.862;6.602;2023-05-09T02:48:43;16.10;99.90
66328;DHT22;53133;52.862;6.602;2023-05-09T02:51:09;16.10;99.90
66328;DHT22;53133;52.862;6.602;2023-05-09T02:53:34;16.00;99.90
66328;DHT22;53133;52.862;6.602;2023-05-09T02:56:00;16.00;99.90
66328;DHT22;53133;52.862;6.602;2023-05-09T02:58:26;16.00;99.90
66328;DHT22;53133;52.862;6.602;2023-05-09T03:00:51;16.00;99.90
66328;DHT22;53133;52.862;6.602;2023-05-09T03:03:17;16.10;99.90
66328;DHT22;53133;52.862;6.602;2023-05-09T03:05:43;16.10;99.90
66328;DHT22;53133;52.862;6.602;2023-05-09T03:08:08;16.10;99.90
66328;DHT22;53133;52.862;6.602;2023-05-09T03:10:34;16.10;99.90
66328;DHT22;53133;52.862;6.602;2023-05-09T03:13:00;16.10;99.90
66328;DHT22;53133;52.862;6.602;2023-05-09T03:15:25;16.10;99.90
66328;DHT22;53133;52.862;6.602;2023-05-09T03:17:51;16.10;99.90
66328;DHT22;53133;52.862;6.602;2023-05-09T03:20:17;16.10;99.90
66328;DHT22;53133;52.862;6.602;2023-05-09T03:22:46;16.10;99.90
66328;DHT22;53133;52.862;6.602;2023-05-09T03:25:13;16.10;99.90
66328;DHT22;53133;52.862;6.602;2023-05-09T03:27:38;16.10;99.90
66328;DHT22;53133;52.862;6.602;2023-05-09T03:30:04;16.10;99.90
66328;DHT22;53133;52.862;6.602;2023-05-09T03:32:31;16.10;99.90
66328;DHT22;53133;52.862;6.602;2023-05-09T03:34:56;16.10;99.90
66328;DHT22;53133;52.862;6.602;2023-05-09T03:37:22;16.20;99.90
66328;DHT22;53133;52.862;6.602;2023-05-09T03:39:48;16.10;99.90
66328;DHT22;53133;52.862;6.602;2023-05-09T03:42:13;16.20;99.90
66328;DHT22;53133;52.862;6.602;2023-05-09T03:44:39;16.10;99.90
66328;DHT22;53133;52.862;6.602;2023-05-09T03:47:05;16.10;99.90
66328;DHT22;53133;52.862;6.602;2023-05-09T03:49:30;16.20;99.90
66328;DHT22;53133;52.862;6.602;2023-05-09T03:51:56;16.10;99.90
66328;DHT22;53133;52.862;6.602;2023-05-09T03:54:21;16.10;99.90
66328;DHT22;53133;52.862;6.602;2023-05-09T03:56:47;16.10;99.90
66328;DHT22;53133;52.862;6.602;2023-05-09T03:59:13;16.10;99.90
66328;DHT22;53133;52.862;6.602;2023-05-09T04:01:38;16.10;99.90
66328;DHT22;53133;52.862;6.602;2023-05-09T04:04:04;16.10;99.90
66328;DHT22;53133;52.862;6.602;2023-05-09T04:06:32;16.10;99.90
66328;DHT22;53133;52.862;6.602;2023-05-09T04:09:01;16.10;99.90
66328;DHT22;53133;52.862;6.602;2023-05-09T04:11:26;16.10;99.90
66328;DHT22;53133;52.862;6.602;2023-05-09T04:13:53;16.20;99.90
66328;DHT22;53133;52.862;6.602;2023-05-09T04:16:19;16.20;99.90
66328;DHT22;53133;52.862;6.602;2023-05-09T04:18:44;16.20;99.90
66328;DHT22;53133;52.862;6.602;2023-05-09T04:21:10;16.20;99.90
66328;DHT22;53133;52.862;6.602;2023-05-09T04:23:35;16.10;99.90
66328;DHT22;53133;52.862;6.602;2023-05-09T04:26:03;16.20;99.90
66328;DHT22;53133;52.862;6.602;2023-05-09T04:28:28;16.10;99.90
66328;DHT22;53133;52.862;6.602;2023-05-09T04:31:15;16.20;99.90
66328;DHT22;53133;52.862;6.602;2023-05-09T04:33:41;16.20;99.90
66328;DHT22;53133;52.862;6.602;2023-05-09T04:36:07;16.20;99.90
66328;DHT22;53133;52.862;6.602;2023-05-09T04:38:33;16.20;99.90
66328;DHT22;53133;52.862;6.602;2023-05-09T04:40:58;16.30;99.90
66328;DHT22;53133;52.862;6.602;2023-05-09T04:43:24;16.20;99.90
66328;DHT22;53133;52.862;6.602;2023-05-09T04:45:52;16.20;99.90
66328;DHT22;53133;52.862;6.602;2023-05-09T04:50:44;16.20;99.90
66328;DHT22;53133;52.862;6.602;2023-05-09T04:53:13;16.20;99.90
66328;DHT22;53133;52.862;6.602;2023-05-09T04:55:38;16.20;99.90
66328;DHT22;53133;52.862;6.602;2023-05-09T04:58:04;16.20;99.90
66328;DHT22;53133;52.862;6.602;2023-05-09T05:00:29;16.20;99.90
66328;DHT22;53133;52.862;6.602;2023-05-09T05:02:55;16.20;99.90
66328;DHT22;53133;52.862;6.602;2023-05-09T05:05:20;16.20;99.90
66328;DHT22;53133;52.862;6.602;2023-05-09T05:07:46;16.20;99.90
66328;DHT22;53133;52.862;6.602;2023-05-09T05:10:12;16.20;99.90
66328;DHT22;53133;52.862;6.602;2023-05-09T05:12:38;16.10;99.90
66328;DHT22;53133;52.862;6.602;2023-05-09T05:15:04;16.10;99.90
66328;DHT22;53133;52.862;6.602;2023-05-09T05:17:29;16.20;99.90
66328;DHT22;53133;52.862;6.602;2023-05-09T05:19:56;16.20;99.90
66328;DHT22;53133;52.862;6.602;2023-05-09T05:22:21;16.10;99.90
66328;DHT22;53133;52.862;6.602;2023-05-09T05:24:47;16.10;99.90
66328;DHT22;53133;52.862;6.602;2023-05-09T05:27:13;16.20;99.90
66328;DHT22;53133;52.862;6.602;2023-05-09T05:29:38;16.10;99.90
66328;DHT22;53133;52.862;6.602;2023-05-09T05:32:04;16.20;99.90
66328;DHT22;53133;52.862;6.602;2023-05-09T05:34:29;16.10;99.90
66328;DHT22;53133;52.862;6.602;2023-05-09T05:36:55;16.10;99.90
66328;DHT22;53133;52.862;6.602;2023-05-09T05:39:21;16.10;99.90
66328;DHT22;53133;52.862;6.602;2023-05-09T05:41:46;16.10;99.90
66328;DHT22;53133;52.862;6.602;2023-05-09T05:44:12;16.10;99.90
66328;DHT22;53133;52.862;6.602;2023-05-09T05:46:37;16.10;99.90
66328;DHT22;53133;52.862;6.602;2023-05-09T05:49:03;16.10;99.90
66328;DHT22;53133;52.862;6.602;2023-05-09T05:51:28;16.10;99.90
66328;DHT22;53133;52.862;6.602;2023-05-09T05:53:55;16.10;99.90
66328;DHT22;53133;52.862;6.602;2023-05-09T05:56:20;16.10;99.90
66328;DHT22;53133;52.862;6.602;2023-05-09T05:58:47;16.10;99.90
66328;DHT22;53133;52.862;6.602;2023-05-09T06:01:12;16.00;99.90
66328;DHT22;53133;52.862;6.602;2023-05-09T06:03:44;16.00;99.90
66328;DHT22;53133;52.862;6.602;2023-05-09T06:06:09;16.00;99.90
66328;DHT22;53133;52.862;6.602;2023-05-09T06:08:35;16.00;99.90
66328;DHT22;53133;52.862;6.602;2023-05-09T06:11:00;16.00;99.90
66328;DHT22;53133;52.862;6.602;2023-05-09T06:13:26;16.10;99.90
66328;DHT22;53133;52.862;6.602;2023-05-09T06:15:55;16.10;99.90
66328;DHT22;53133;52.862;6.602;2023-05-09T06:18:21;16.00;99.90
66328;DHT22;53133;52.862;6.602;2023-05-09T06:20:47;16.00;99.90
66328;DHT22;53133;52.862;6.602;2023-05-09T06:23:12;16.00;99.90
66328;DHT22;53133;52.862;6.602;2023-05-09T06:25:41;16.00;99.90
66328;DHT22;53133;52.862;6.602;2023-05-09T06:28:06;15.90;99.90
66328;DHT22;53133;52.862;6.602;2023-05-09T06:30:32;16.00;99.90
66328;DHT22;53133;52.862;6.602;2023-05-09T06:32:57;16.00;99.90
66328;DHT22;53133;52.862;6.602;2023-05-09T06:35:24;16.10;99.90
66328;DHT22;53133;52.862;6.602;2023-05-09T06:37:50;16.10;99.90
66328;DHT22;53133;52.862;6.602;2023-05-09T06:40:16;16.10;99.90
66328;DHT22;53133;52.862;6.602;2023-05-09T06:42:41;16.10;99.90
66328;DHT22;53133;52.862;6.602;2023-05-09T06:45:10;16.10;99.90
66328;DHT22;53133;52.862;6.602;2023-05-09T06:47:35;16.20;99.90
66328;DHT22;53133;52.862;6.602;2023-05-09T06:50:01;16.10;99.90
66328;DHT22;53133;52.862;6.602;2023-05-09T06:52:27;16.20;99.90
66328;DHT22;53133;52.862;6.602;2023-05-09T06:54:52;16.20;99.90
66328;DHT22;53133;52.862;6.602;2023-05-09T06:57:18;16.20;99.90
66328;DHT22;53133;52.862;6.602;2023-05-09T06:59:44;16.20;99.90
66328;DHT22;53133;52.862;6.602;2023-05-09T07:02:09;16.20;99.90
66328;DHT22;53133;52.862;6.602;2023-05-09T07:04:35;16.20;99.90
66328;DHT22;53133;52.862;6.602;2023-05-09T07:07:01;16.20;99.90
66328;DHT22;53133;52.862;6.602;2023-05-09T07:09:27;16.20;99.90
66328;DHT22;53133;52.862;6.602;2023-05-09T07:11:54;16.20;99.90
66328;DHT22;53133;52.862;6.602;2023-05-09T07:14:19;16.30;99.90
66328;DHT22;53133;52.862;6.602;2023-05-09T07:16:45;16.30;99.90
66328;DHT22;53133;52.862;6.602;2023-05-09T07:19:11;16.30;99.90
66328;DHT22;53133;52.862;6.602;2023-05-09T07:21:37;16.30;99.90
66328;DHT22;53133;52.862;6.602;2023-05-09T07:24:02;16.30;99.90
66328;DHT22;53133;52.862;6.602;2023-05-09T07:26:29;16.30;99.90
66328;DHT22;53133;52.862;6.602;2023-05-09T07:28:54;16.20;99.90
66328;DHT22;53133;52.862;6.602;2023-05-09T07:31:20;16.30;99.90
66328;DHT22;53133;52.862;6.602;2023-05-09T07:33:45;16.30;99.90
66328;DHT22;53133;52.862;6.602;2023-05-09T07:36:11;16.30;99.90
66328;DHT22;53133;52.862;6.602;2023-05-09T07:38:38;16.40;99.90
66328;DHT22;53133;52.862;6.602;2023-05-09T07:41:04;16.40;99.90
66328;DHT22;53133;52.862;6.602;2023-05-09T07:43:31;16.40;99.90
66328;DHT22;53133;52.862;6.602;2023-05-09T07:45:56;16.50;99.90
66328;DHT22;53133;52.862;6.602;2023-05-09T07:48:22;16.50;99.90
66328;DHT22;53133;52.862;6.602;2023-05-09T07:50:48;16.50;99.90
66328;DHT22;53133;52.862;6.602;2023-05-09T07:53:13;16.60;99.90
66328;DHT22;53133;52.862;6.602;2023-05-09T07:55:39;16.60;99.90
66328;DHT22;53133;52.862;6.602;2023-05-09T07:58:04;16.60;99.90
66328;DHT22;53133;52.862;6.602;2023-05-09T08:00:30;16.70;99.90
66328;DHT22;53133;52.862;6.602;2023-05-09T08:02:56;16.70;99.90
66328;DHT22;53133;52.862;6.602;2023-05-09T08:05:21;16.80;99.90
66328;DHT22;53133;52.862;6.602;2023-05-09T08:07:47;16.80;99.90
66328;DHT22;53133;52.862;6.602;2023-05-09T08:10:12;16.80;99.90
66328;DHT22;53133;52.862;6.602;2023-05-09T08:14:23;16.80;99.90
66328;DHT22;53133;52.862;6.602;2023-05-09T08:16:48;16.80;99.90
66328;DHT22;53133;52.862;6.602;2023-05-09T08:19:14;16.80;99.90
66328;DHT22;53133;52.862;6.602;2023-05-09T08:21:40;16.80;99.90
66328;DHT22;53133;52.862;6.602;2023-05-09T08:24:05;16.80;99.90
66328;DHT22;53133;52.862;6.602;2023-05-09T08:26:33;16.90;99.90
66328;DHT22;53133;52.862;6.602;2023-05-09T08:28:59;16.90;99.90
66328;DHT22;53133;52.862;6.602;2023-05-09T08:31:25;17.00;99.90
66328;DHT22;53133;52.862;6.602;2023-05-09T08:33:51;17.00;99.90
66328;DHT22;53133;52.862;6.602;2023-05-09T08:36:17;17.10;99.90
66328;DHT22;53133;52.862;6.602;2023-05-09T08:38:42;17.00;99.90
66328;DHT22;53133;52.862;6.602;2023-05-09T08:41:08;17.10;99.90
66328;DHT22;53133;52.862;6.602;2023-05-09T08:43:34;17.10;99.90
66328;DHT22;53133;52.862;6.602;2023-05-09T08:46:05;17.10;99.90
66328;DHT22;53133;52.862;6.602;2023-05-09T08:48:33;17.20;99.90
66328;DHT22;53133;52.862;6.602;2023-05-09T08:51:03;17.20;99.90
66328;DHT22;53133;52.862;6.602;2023-05-09T08:53:29;17.20;99.90
66328;DHT22;53133;52.862;6.602;2023-05-09T08:56:01;17.30;99.90
66328;DHT22;53133;52.862;6.602;2023-05-09T08:58:27;17.30;99.90
66328;DHT22;53133;52.862;6.602;2023-05-09T09:00:53;17.30;99.90
66328;DHT22;53133;52.862;6.602;2023-05-09T09:03:23;17.30;99.90
66328;DHT22;53133;52.862;6.602;2023-05-09T09:05:50;17.30;99.90
66328;DHT22;53133;52.862;6.602;2023-05-09T09:08:18;17.30;99.90
66328;DHT22;53133;52.862;6.602;2023-05-09T09:10:44;17.30;99.90
66328;DHT22;53133;52.862;6.602;2023-05-09T09:13:14;17.40;99.90
66328;DHT22;53133;52.862;6.602;2023-05-09T09:15:42;17.40;99.90
66328;DHT22;53133;52.862;6.602;2023-05-09T09:18:11;17.40;99.90
66328;DHT22;53133;52.862;6.602;2023-05-09T09:20:40;17.50;99.90
66328;DHT22;53133;52.862;6.602;2023-05-09T09:23:09;17.60;99.90
66328;DHT22;53133;52.862;6.602;2023-05-09T09:25:36;17.60;99.90
66328;DHT22;53133;52.862;6.602;2023-05-09T09:28:03;17.60;99.90
66328;DHT22;53133;52.862;6.602;2023-05-09T09:30:28;17.60;99.90
66328;DHT22;53133;52.862;6.602;2023-05-09T09:32:54;17.60;99.90
66328;DHT22;53133;52.862;6.602;2023-05-09T09:35:19;17.50;99.90
66328;DHT22;53133;52.862;6.602;2023-05-09T09:37:46;17.50;99.90
66328;DHT22;53133;52.862;6.602;2023-05-09T09:40:12;17.50;99.90
66328;DHT22;53133;52.862;6.602;2023-05-09T09:42:50;17.50;99.90
66328;DHT22;53133;52.862;6.602;2023-05-09T09:45:18;17.60;99.90
66328;DHT22;53133;52.862;6.602;2023-05-09T09:47:46;17.60;99.90
66328;DHT22;53133;52.862;6.602;2023-05-09T09:50:15;17.60;99.90
66328;DHT22;53133;52.862;6.602;2023-05-09T09:52:43;17.70;99.90
66328;DHT22;53133;52.862;6.602;2023-05-09T09:55:09;17.70;99.90
66328;DHT22;53133;52.862;6.602;2023-05-09T09:57:36;17.80;99.90
66328;DHT22;53133;52.862;6.602;2023-05-09T10:00:06;17.80;99.90
66328;DHT22;53133;52.862;6.602;2023-05-09T10:02:32;17.90;99.90
66328;DHT22;53133;52.862;6.602;2023-05-09T10:05:08;17.90;99.90
66328;DHT22;53133;52.862;6.602;2023-05-09T10:07:34;18.00;99.90
66328;DHT22;53133;52.862;6.602;2023-05-09T10:10:01;18.00;99.90
66328;DHT22;53133;52.862;6.602;2023-05-09T10:12:32;18.20;99.90
66328;DHT22;53133;52.862;6.602;2023-05-09T10:15:03;18.20;99.90
66328;DHT22;53133;52.862;6.602;2023-05-09T10:17:32;18.20;99.90
66328;DHT22;53133;52.862;6.602;2023-05-09T10:20:01;18.30;99.90
66328;DHT22;53133;52.862;6.602;2023-05-09T10:22:29;18.30;99.90
66328;DHT22;53133;52.862;6.602;2023-05-09T10:25:19;18.30;99.90
66328;DHT22;53133;52.862;6.602;2023-05-09T10:27:46;18.30;99.90
66328;DHT22;53133;52.862;6.602;2023-05-09T10:30:23;18.40;99.90
66328;DHT22;53133;52.862;6.602;2023-05-09T10:33:02;18.40;99.90
66328;DHT22;53133;52.862;6.602;2023-05-09T10:35:35;18.50;99.90
66328;DHT22;53133;52.862;6.602;2023-05-09T10:38:01;18.50;99.90
66328;DHT22;53133;52.862;6.602;2023-05-09T10:40:27;18.60;99.90
66328;DHT22;53133;52.862;6.602;2023-05-09T10:42:53;18.70;99.90
66328;DHT22;53133;52.862;6.602;2023-05-09T10:45:20;18.70;99.90
66328;DHT22;53133;52.862;6.602;2023-05-09T10:47:49;18.80;99.90
66328;DHT22;53133;52.862;6.602;2023-05-09T10:50:16;18.80;99.90
66328;DHT22;53133;52.862;6.602;2023-05-09T10:53:08;18.80;99.90
66328;DHT22;53133;52.862;6.602;2023-05-09T10:55:53;18.90;99.90
66328;DHT22;53133;52.862;6.602;2023-05-09T10:58:29;18.80;99.90
66328;DHT22;53133;52.862;6.602;2023-05-09T11:01:00;18.80;99.90
66328;DHT22;53133;52.862;6.602;2023-05-09T11:03:27;18.90;99.90
66328;DHT22;53133;52.862;6.602;2023-05-09T11:05:55;18.90;99.90
66328;DHT22;53133;52.862;6.602;2023-05-09T11:08:30;18.90;99.90
66328;DHT22;53133;52.862;6.602;2023-05-09T11:11:04;18.90;99.90
66328;DHT22;53133;52.862;6.602;2023-05-09T11:13:31;19.00;99.90
66328;DHT22;53133;52.862;6.602;2023-05-09T11:18:32;19.00;99.90
66328;DHT22;53133;52.862;6.602;2023-05-09T11:21:06;19.10;99.90
66328;DHT22;53133;52.862;6.602;2023-05-09T11:23:33;19.10;99.90
66328;DHT22;53133;52.862;6.602;2023-05-09T11:26:06;19.20;99.90
66328;DHT22;53133;52.862;6.602;2023-05-09T11:28:34;19.20;99.90
66328;DHT22;53133;52.862;6.602;2023-05-09T11:31:15;19.20;99.90
66328;DHT22;53133;52.862;6.602;2023-05-09T11:33:42;19.20;99.90
66328;DHT22;53133;52.862;6.602;2023-05-09T11:38:59;19.40;99.90
66328;DHT22;53133;52.862;6.602;2023-05-09T11:41:26;19.40;99.90
66328;DHT22;53133;52.862;6.602;2023-05-09T11:43:54;19.40;99.90
66328;DHT22;53133;52.862;6.602;2023-05-09T11:46:20;19.40;99.90
66328;DHT22;53133;52.862;6.602;2023-05-09T11:48:47;19.30;99.90
66328;DHT22;53133;52.862;6.602;2023-05-09T11:51:17;19.30;99.90
66328;DHT22;53133;52.862;6.602;2023-05-09T11:53:43;19.30;99.90
66328;DHT22;53133;52.862;6.602;2023-05-09T11:56:11;19.30;99.90
66328;DHT22;53133;52.862;6.602;2023-05-09T11:58:38;19.40;99.90
66328;DHT22;53133;52.862;6.602;2023-05-09T12:01:04;19.40;99.90
66328;DHT22;53133;52.862;6.602;2023-05-09T12:03:30;19.40;99.90
66328;DHT22;53133;52.862;6.602;2023-05-09T12:05:55;19.40;99.90
66328;DHT22;53133;52.862;6.602;2023-05-09T12:08:23;19.50;99.90
66328;DHT22;53133;52.862;6.602;2023-05-09T12:10:49;19.50;99.90
66328;DHT22;53133;52.862;6.602;2023-05-09T12:13:14;19.50;99.90
66328;DHT22;53133;52.862;6.602;2023-05-09T12:15:40;19.40;99.90
66328;DHT22;53133;52.862;6.602;2023-05-09T12:18:06;19.50;99.90
66328;DHT22;53133;52.862;6.602;2023-05-09T12:20:43;19.50;99.90
66328;DHT22;53133;52.862;6.602;2023-05-09T12:23:12;19.50;99.90
66328;DHT22;53133;52.862;6.602;2023-05-09T12:25:46;19.50;99.90
66328;DHT22;53133;52.862;6.602;2023-05-09T12:28:11;19.50;99.90
66328;DHT22;53133;52.862;6.602;2023-05-09T12:30:37;19.60;99.90
66328;DHT22;53133;52.862;6.602;2023-05-09T12:33:03;19.60;99.90
66328;DHT22;53133;52.862;6.602;2023-05-09T12:35:29;19.50;99.90
66328;DHT22;53133;52.862;6.602;2023-05-09T12:37:57;19.50;99.90
66328;DHT22;53133;52.862;6.602;2023-05-09T12:40:22;19.60;99.90
66328;DHT22;53133;52.862;6.602;2023-05-09T12:42:48;19.60;99.90
66328;DHT22;53133;52.862;6.602;2023-05-09T12:45:14;19.60;99.90
66328;DHT22;53133;52.862;6.602;2023-05-09T12:47:40;19.60;99.90
66328;DHT22;53133;52.862;6.602;2023-05-09T12:50:10;19.60;99.90
66328;DHT22;53133;52.862;6.602;2023-05-09T12:52:38;19.60;99.90
66328;DHT22;53133;52.862;6.602;2023-05-09T12:55:06;19.60;99.90
66328;DHT22;53133;52.862;6.602;2023-05-09T12:57:32;19.60;99.90
66328;DHT22;53133;52.862;6.602;2023-05-09T12:59:58;19.60;99.90
66328;DHT22;53133;52.862;6.602;2023-05-09T13:02:33;19.60;99.90
66328;DHT22;53133;52.862;6.602;2023-05-09T13:05:09;19.60;99.90
66328;DHT22;53133;52.862;6.602;2023-05-09T13:08:01;19.60;99.90
66328;DHT22;53133;52.862;6.602;2023-05-09T13:10:28;19.60;99.90
66328;DHT22;53133;52.862;6.602;2023-05-09T13:12:54;19.60;99.90
66328;DHT22;53133;52.862;6.602;2023-05-09T13:15:21;19.50;99.90
66328;DHT22;53133;52.862;6.602;2023-05-09T13:17:50;19.50;99.90
66328;DHT22;53133;52.862;6.602;2023-05-09T13:20:17;19.50;99.90
66328;DHT22;53133;52.862;6.602;2023-05-09T13:22:43;19.40;99.90
66328;DHT22;53133;52.862;6.602;2023-05-09T13:25:10;19.40;99.90
66328;DHT22;53133;52.862;6.602;2023-05-09T13:27:35;19.30;99.90
66328;DHT22;53133;52.862;6.602;2023-05-09T13:30:02;19.30;99.90
66328;DHT22;53133;52.862;6.602;2023-05-09T13:32:28;19.20;99.90
66328;DHT22;53133;52.862;6.602;2023-05-09T13:34:54;19.20;99.90
66328;DHT22;53133;52.862;6.602;2023-05-09T13:37:19;19.10;99.90
66328;DHT22;53133;52.862;6.602;2023-05-09T13:39:46;19.10;99.90
66328;DHT22;53133;52.862;6.602;2023-05-09T13:42:12;19.00;99.90
66328;DHT22;53133;52.862;6.602;2023-05-09T13:44:38;19.00;99.90
66328;DHT22;53133;52.862;6.602;2023-05-09T13:47:03;19.00;99.90
66328;DHT22;53133;52.862;6.602;2023-05-09T13:49:32;18.90;99.90
66328;DHT22;53133;52.862;6.602;2023-05-09T13:51:58;18.90;99.90
66328;DHT22;53133;52.862;6.602;2023-05-09T13:54:23;18.90;99.90
66328;DHT22;53133;52.862;6.602;2023-05-09T13:56:49;18.90;99.90
66328;DHT22;53133;52.862;6.602;2023-05-09T13:59:15;18.90;99.90
66328;DHT22;53133;52.862;6.602;2023-05-09T14:01:41;18.90;99.90
66328;DHT22;53133;52.862;6.602;2023-05-09T14:04:07;18.90;99.90
66328;DHT22;53133;52.862;6.602;2023-05-09T14:06:32;18.90;99.90
66328;DHT22;53133;52.862;6.602;2023-05-09T14:08:58;18.90;99.90
66328;DHT22;53133;52.862;6.602;2023-05-09T14:11:24;18.90;99.90
66328;DHT22;53133;52.862;6.602;2023-05-09T14:13:53;18.80;99.90
66328;DHT22;53133;52.862;6.602;2023-05-09T14:16:19;18.80;99.90
66328;DHT22;53133;52.862;6.602;2023-05-09T14:18:46;18.80;99.90
66328;DHT22;53133;52.862;6.602;2023-05-09T14:21:12;18.70;99.90
66328;DHT22;53133;52.862;6.602;2023-05-09T14:23:37;18.70;99.90
66328;DHT22;53133;52.862;6.602;2023-05-09T14:26:03;18.70;99.90
66328;DHT22;53133;52.862;6.602;2023-05-09T14:28:29;18.70;99.90
66328;DHT22;53133;52.862;6.602;2023-05-09T14:30:54;18.60;99.90
66328;DHT22;53133;52.862;6.602;2023-05-09T14:33:21;18.60;99.90
66328;DHT22;53133;52.862;6.602;2023-05-09T14:35:47;18.50;99.90
66328;DHT22;53133;52.862;6.602;2023-05-09T14:38:12;18.50;99.90
66328;DHT22;53133;52.862;6.602;2023-05-09T14:40:38;18.50;99.90
66328;DHT22;53133;52.862;6.602;2023-05-09T14:43:04;18.50;99.90
66328;DHT22;53133;52.862;6.602;2023-05-09T14:45:31;18.40;99.90
66328;DHT22;53133;52.862;6.602;2023-05-09T14:47:57;18.40;99.90
66328;DHT22;53133;52.862;6.602;2023-05-09T14:50:23;18.40;99.90
66328;DHT22;53133;52.862;6.602;2023-05-09T14:52:49;18.40;99.90
66328;DHT22;53133;52.862;6.602;2023-05-09T14:55:18;18.40;99.90
66328;DHT22;53133;52.862;6.602;2023-05-09T14:57:44;18.40;99.90
66328;DHT22;53133;52.862;6.602;2023-05-09T15:00:10;18.40;99.90
66328;DHT22;53133;52.862;6.602;2023-05-09T15:02:36;18.40;99.90
66328;DHT22;53133;52.862;6.602;2023-05-09T15:05:02;18.30;99.90
66328;DHT22;53133;52.862;6.602;2023-05-09T15:07:28;18.30;99.90
66328;DHT22;53133;52.862;6.602;2023-05-09T15:09:54;18.30;99.90
66328;DHT22;53133;52.862;6.602;2023-05-09T15:12:19;18.30;99.90
66328;DHT22;53133;52.862;6.602;2023-05-09T15:14:48;18.30;99.90
66328;DHT22;53133;52.862;6.602;2023-05-09T15:17:18;18.30;99.90
66328;DHT22;53133;52.862;6.602;2023-05-09T15:19:43;18.30;99.90
66328;DHT22;53133;52.862;6.602;2023-05-09T15:22:09;18.20;99.90
66328;DHT22;53133;52.862;6.602;2023-05-09T15:24:35;18.20;99.90
66328;DHT22;53133;52.862;6.602;2023-05-09T15:27:01;18.10;99.90
66328;DHT22;53133;52.862;6.602;2023-05-09T15:29:26;18.10;99.90
66328;DHT22;53133;52.862;6.602;2023-05-09T15:31:53;18.10;99.90
66328;DHT22;53133;52.862;6.602;2023-05-09T15:34:20;18.10;99.90
66328;DHT22;53133;52.862;6.602;2023-05-09T15:36:48;18.00;99.90
66328;DHT22;53133;52.862;6.602;2023-05-09T15:39:14;18.00;99.90
66328;DHT22;53133;52.862;6.602;2023-05-09T15:41:39;18.00;99.90
66328;DHT22;53133;52.862;6.602;2023-05-09T15:44:05;17.90;99.90
66328;DHT22;53133;52.862;6.602;2023-05-09T15:46:32;17.90;99.90
66328;DHT22;53133;52.862;6.602;2023-05-09T15:48:57;17.90;99.90